createdAt,value
2023-04-09T00:01:20.394Z,26.00
2023-04-09T00:03:48.531Z,27.40
2023-04-09T00:06:16.640Z,24.80
2023-04-09T00:08:44.661Z,24.70
2023-04-09T00:11:12.647Z,29.60
2023-04-09T00:13:41.073Z,24.60
2023-04-09T00:16:09.354Z,25.70
2023-04-09T00:18:37.774Z,26.10
2023-04-09T00:21:07.214Z,31.90
2023-04-09T00:23:35.680Z,39.00
2023-04-09T00:26:03.729Z,40.50
2023-04-09T00:28:31.650Z,38.30
2023-04-09T00:30:59.746Z,34.90
2023-04-09T00:33:28.347Z,30.80
2023-04-09T00:35:56.951Z,32.50
2023-04-09T00:38:25.556Z,31.80
2023-04-09T00:40:53.524Z,31.70
2023-04-09T00:43:21.697Z,29.60
2023-04-09T00:45:49.673Z,25.80
2023-04-09T00:48:17.975Z,25.10
2023-04-09T00:50:45.962Z,27.10
2023-04-09T00:53:14.959Z,26.90
2023-04-09T00:55:43.185Z,24.60
2023-04-09T00:58:11.304Z,26.50
2023-04-09T01:00:39.306Z,25.70
2023-04-09T01:03:08.028Z,23.20
2023-04-09T01:06:01.993Z,22.60
2023-04-09T01:08:49.349Z,23.70
2023-04-09T01:11:46.430Z,25.20
2023-04-09T01:14:20.642Z,22.10
2023-04-09T01:16:56.027Z,24.70
2023-04-09T01:19:48.917Z,21.70
2023-04-09T01:22:25.108Z,21.40
2023-04-09T01:25:09.777Z,23.50
2023-04-09T01:27:56.528Z,24.20
2023-04-09T01:30:26.841Z,28.10
2023-04-09T01:32:57.295Z,26.30
2023-04-09T01:35:27.295Z,28.30
2023-04-09T01:37:56.799Z,28.50
2023-04-09T01:40:25.141Z,25.40
2023-04-09T01:42:55.031Z,29.60
2023-04-09T01:45:23.923Z,26.40
2023-04-09T01:47:53.907Z,24.10
2023-04-09T01:50:22.584Z,25.00
2023-04-09T01:52:51.080Z,24.60
2023-04-09T01:55:19.588Z,29.00
2023-04-09T01:57:47.458Z,26.50
2023-04-09T02:00:16.512Z,26.50
2023-04-09T02:03:05.837Z,32.70
2023-04-09T02:05:38.876Z,27.00
2023-04-09T02:08:12.066Z,26.70
2023-04-09T02:10:40.806Z,25.80
2023-04-09T02:13:14.191Z,28.60
2023-04-09T02:15:43.889Z,29.70
2023-04-09T02:18:27.327Z,27.30
2023-04-09T02:20:57.322Z,29.60
2023-04-09T02:23:29.670Z,25.40
2023-04-09T02:25:57.659Z,24.20
2023-04-09T02:28:25.640Z,25.10
2023-04-09T02:30:53.686Z,26.70
2023-04-09T02:33:22.129Z,31.40
2023-04-09T02:35:50.957Z,31.30
2023-04-09T02:38:20.757Z,31.00
2023-04-09T02:40:48.784Z,28.00
2023-04-09T02:43:17.101Z,32.20
2023-04-09T02:45:45.059Z,28.10
2023-04-09T02:48:12.960Z,29.90
2023-04-09T02:50:41.547Z,31.10
2023-04-09T02:53:09.484Z,30.20
2023-04-09T02:55:37.602Z,30.70
2023-04-09T02:58:05.679Z,27.60
2023-04-09T03:00:34.192Z,29.20
2023-04-09T03:03:02.361Z,29.00
2023-04-09T03:05:30.598Z,32.70
2023-04-09T03:07:58.528Z,30.00
2023-04-09T03:10:26.543Z,30.80
2023-04-09T03:12:54.528Z,33.70
2023-04-09T03:15:22.801Z,34.70
2023-04-09T03:17:50.745Z,34.00
2023-04-09T03:20:18.739Z,34.80
2023-04-09T03:22:46.659Z,34.20
2023-04-09T03:25:30.470Z,31.90
2023-04-09T03:27:58.891Z,31.70
2023-04-09T03:30:34.090Z,31.40
2023-04-09T03:33:03.604Z,31.10
2023-04-09T03:35:32.940Z,29.40
2023-04-09T03:38:01.452Z,33.00
2023-04-09T03:40:29.688Z,34.20
2023-04-09T03:42:57.821Z,34.90
2023-04-09T03:45:26.144Z,32.80
2023-04-09T03:48:02.358Z,30.50
2023-04-09T03:50:30.552Z,35.00
2023-04-09T03:52:58.620Z,31.20
2023-04-09T03:55:27.173Z,32.50
2023-04-09T03:57:55.413Z,32.60
2023-04-09T04:05:17.144Z,37.90
2023-04-09T04:07:47.614Z,35.10
2023-04-09T04:10:19.818Z,36.60
2023-04-09T04:12:48.704Z,36.70
2023-04-09T04:15:27.033Z,42.50
2023-04-09T04:17:56.435Z,37.50
2023-04-09T04:20:36.429Z,34.50
2023-04-09T04:23:08.600Z,38.10
2023-04-09T04:25:42.765Z,37.80
2023-04-09T04:28:13.091Z,35.30
2023-04-09T04:34:58.108Z,40.80
2023-04-09T04:37:26.465Z,47.00
2023-04-09T04:39:55.894Z,42.10
2023-04-09T04:42:22.856Z,35.40
2023-04-09T04:44:49.599Z,37.30
2023-04-09T04:47:36.334Z,28.00
2023-04-09T04:50:04.072Z,33.40
2023-04-09T04:52:33.461Z,32.00
2023-04-09T04:55:01.252Z,31.80
2023-04-09T04:57:27.979Z,33.40
2023-04-09T04:59:55.115Z,30.40
2023-04-09T05:02:21.836Z,31.50
2023-04-09T05:04:55.655Z,31.90
2023-04-09T05:07:27.781Z,28.90
2023-04-09T05:09:54.544Z,29.30
2023-04-09T05:12:21.055Z,28.60
2023-04-09T05:14:50.415Z,29.70
2023-04-09T05:17:17.098Z,32.30
2023-04-09T05:19:51.153Z,28.70
2023-04-09T05:22:18.222Z,32.80
2023-04-09T05:24:45.504Z,29.80
2023-04-09T05:27:12.712Z,33.50
2023-04-09T05:29:52.722Z,31.60
2023-04-09T05:32:19.744Z,32.40
2023-04-09T05:34:46.671Z,33.10
2023-04-09T05:37:14.241Z,35.10
2023-04-09T05:39:41.832Z,35.30
2023-04-09T05:42:08.565Z,35.90
2023-04-09T05:44:40.461Z,32.50
2023-04-09T05:47:17.385Z,27.50
2023-04-09T05:50:16.676Z,28.80
2023-04-09T05:52:43.421Z,29.80
2023-04-09T05:55:11.739Z,32.00
2023-04-09T05:57:44.727Z,28.00
2023-04-09T06:00:12.766Z,31.40
2023-04-09T06:02:46.276Z,27.40
2023-04-09T06:05:13.459Z,28.10
2023-04-09T06:07:40.657Z,27.30
2023-04-09T06:10:07.923Z,27.10
2023-04-09T06:12:35.599Z,24.50
2023-04-09T06:15:06.132Z,24.40
2023-04-09T06:17:32.911Z,25.30
2023-04-09T06:19:59.503Z,23.90
2023-04-09T06:22:26.147Z,26.00
2023-04-09T06:24:52.589Z,25.30
2023-04-09T06:27:21.560Z,24.90
2023-04-09T06:29:48.296Z,24.40
2023-04-09T06:32:15.025Z,26.10
2023-04-09T06:34:41.609Z,23.80
2023-04-09T06:37:08.154Z,25.00
2023-04-09T06:39:35.151Z,24.70
2023-04-09T06:42:03.271Z,22.60
2023-04-09T06:44:38.539Z,22.30
2023-04-09T06:47:05.515Z,19.50
2023-04-09T06:49:32.333Z,21.50
2023-04-09T06:51:58.947Z,20.90
2023-04-09T06:54:25.752Z,22.50
2023-04-09T06:56:52.379Z,18.30
2023-04-09T06:59:19.455Z,17.40
2023-04-09T07:01:47.119Z,17.30
2023-04-09T07:04:14.064Z,16.50
2023-04-09T07:06:40.976Z,14.80
2023-04-09T07:09:07.671Z,13.50
2023-04-09T07:11:34.341Z,12.50
2023-04-09T07:14:01.108Z,15.40
2023-04-09T07:16:28.097Z,13.90
2023-04-09T07:18:55.013Z,15.10
2023-04-09T07:21:21.814Z,15.80
2023-04-09T07:23:48.521Z,14.40
2023-04-09T07:26:15.087Z,14.50
2023-04-09T07:28:41.657Z,13.20
2023-04-09T07:31:08.833Z,15.10
2023-04-09T07:33:35.740Z,13.90
2023-04-09T07:36:02.552Z,11.80
2023-04-09T07:38:29.744Z,13.40
2023-04-09T07:40:56.583Z,12.00
2023-04-09T07:43:23.164Z,14.20
2023-04-09T07:45:51.073Z,11.40
2023-04-09T07:48:17.631Z,12.60
2023-04-09T07:50:47.668Z,12.80
2023-04-09T07:53:15.898Z,14.40
2023-04-09T07:55:42.608Z,13.80
2023-04-09T07:58:09.542Z,13.00
2023-04-09T08:00:36.214Z,12.10
2023-04-09T08:03:03.391Z,11.40
2023-04-09T08:05:30.941Z,12.10
2023-04-09T08:07:57.687Z,12.60
2023-04-09T08:10:24.762Z,15.10
2023-04-09T08:12:51.623Z,12.60
2023-04-09T08:15:18.456Z,11.70
2023-04-09T08:17:45.213Z,13.50
2023-04-09T08:20:12.138Z,13.30
2023-04-09T08:22:40.422Z,14.50
2023-04-09T08:25:07.436Z,12.10
2023-04-09T08:27:35.433Z,14.70
2023-04-09T08:30:02.981Z,15.60
2023-04-09T08:32:29.480Z,16.90
2023-04-09T08:34:56.161Z,18.40
2023-04-09T08:37:22.809Z,17.20
2023-04-09T08:39:49.316Z,15.40
2023-04-09T08:42:16.464Z,14.20
2023-04-09T08:44:43.248Z,19.40
2023-04-09T08:47:13.899Z,13.50
2023-04-09T08:49:41.334Z,13.80
2023-04-09T08:52:08.150Z,13.90
2023-04-09T08:54:34.991Z,13.30
2023-04-09T08:57:05.323Z,12.00
2023-04-09T08:59:36.274Z,12.30
2023-04-09T09:02:08.094Z,13.10
2023-04-09T09:04:48.971Z,12.00
2023-04-09T09:10:01.687Z,15.10
2023-04-09T09:12:31.464Z,12.90
2023-04-09T09:14:58.382Z,12.50
2023-04-09T09:17:25.995Z,10.50
2023-04-09T09:19:52.771Z,12.20
2023-04-09T09:24:50.665Z,12.00
2023-04-09T09:27:36.137Z,12.70
2023-04-09T09:30:05.238Z,10.80
2023-04-09T09:32:33.238Z,10.80
2023-04-09T09:35:05.556Z,11.20
2023-04-09T09:37:33.430Z,10.20
2023-04-09T09:40:00.606Z,9.10
2023-04-09T09:42:27.431Z,10.30
2023-04-09T09:44:54.742Z,10.80
2023-04-09T09:47:22.516Z,12.90
2023-04-09T09:49:50.115Z,11.30
2023-04-09T09:52:23.872Z,10.90
2023-04-09T09:54:52.682Z,10.20
2023-04-09T09:57:23.023Z,11.10
2023-04-09T10:00:01.309Z,11.30
2023-04-09T10:02:35.725Z,14.70
2023-04-09T10:05:05.540Z,11.30
2023-04-09T10:07:32.333Z,13.30
2023-04-09T10:10:00.883Z,11.70
2023-04-09T10:12:28.145Z,13.40
2023-04-09T10:14:55.754Z,12.30
2023-04-09T10:17:23.116Z,10.30
2023-04-09T10:20:22.366Z,10.60
2023-04-09T10:22:51.958Z,13.30
2023-04-09T10:25:19.228Z,9.10
2023-04-09T10:27:48.250Z,10.10
2023-04-09T10:30:35.963Z,14.80
2023-04-09T10:33:09.665Z,11.50
2023-04-09T10:35:36.565Z,11.40
2023-04-09T10:38:03.260Z,12.00
2023-04-09T10:40:30.220Z,11.50
2023-04-09T10:42:58.836Z,8.80
2023-04-09T10:57:58.037Z,11.00
2023-04-09T11:05:14.871Z,10.00
2023-04-09T11:07:54.593Z,10.20
2023-04-09T11:10:22.684Z,9.00
2023-04-09T11:12:50.860Z,10.00
2023-04-09T11:15:20.100Z,8.70
2023-04-09T11:17:48.911Z,9.80
2023-04-09T11:20:21.578Z,9.60
2023-04-09T11:22:54.741Z,9.00
2023-04-09T11:25:26.235Z,11.10
2023-04-09T11:27:55.653Z,9.90
2023-04-09T11:30:23.654Z,9.70
2023-04-09T11:32:51.696Z,11.00
2023-04-09T11:35:21.573Z,9.40
2023-04-09T11:37:52.361Z,13.00
2023-04-09T11:40:22.910Z,12.90
2023-04-09T11:42:53.957Z,13.10
2023-04-09T11:45:29.846Z,10.80
2023-04-09T11:47:58.319Z,14.80
2023-04-09T11:50:26.667Z,9.00
2023-04-09T11:52:54.915Z,11.00
2023-04-09T11:55:24.648Z,10.50
2023-04-09T11:58:01.783Z,11.30
2023-04-09T12:00:29.915Z,11.30
2023-04-09T12:03:03.822Z,12.60
2023-04-09T12:05:34.769Z,13.10
2023-04-09T12:08:05.684Z,13.40
2023-04-09T12:10:38.656Z,13.60
2023-04-09T12:13:10.402Z,11.90
2023-04-09T12:15:42.033Z,16.00
2023-04-09T12:18:14.183Z,12.00
2023-04-09T12:20:44.526Z,14.50
2023-04-09T12:23:13.588Z,11.70
2023-04-09T12:25:43.829Z,11.80
2023-04-09T12:28:15.574Z,13.40
2023-04-09T12:30:44.200Z,10.90
2023-04-09T12:33:12.361Z,11.90
2023-04-09T12:35:40.618Z,13.70
2023-04-09T12:38:08.878Z,11.40
2023-04-09T12:40:37.201Z,14.40
2023-04-09T12:43:06.327Z,15.20
2023-04-09T12:45:35.156Z,11.30
2023-04-09T12:48:04.163Z,15.20
2023-04-09T12:50:32.312Z,10.00
2023-04-09T12:53:00.371Z,11.80
2023-04-09T12:55:28.592Z,12.20
2023-04-09T12:57:56.616Z,10.90
2023-04-09T13:00:24.672Z,9.30
2023-04-09T13:02:52.978Z,12.70
2023-04-09T13:05:21.516Z,12.10
2023-04-09T13:07:49.409Z,11.10
2023-04-09T13:10:17.573Z,12.90
2023-04-09T13:12:45.764Z,9.40
2023-04-09T13:15:14.206Z,10.80
2023-04-09T13:17:42.715Z,10.90
2023-04-09T13:20:10.952Z,11.40
2023-04-09T13:22:39.120Z,10.80
2023-04-09T13:25:07.360Z,8.50
2023-04-09T13:27:35.550Z,10.40
2023-04-09T13:30:03.899Z,8.00
2023-04-09T13:32:31.921Z,10.10
2023-04-09T13:35:00.087Z,7.80
2023-04-09T13:37:28.861Z,10.60
2023-04-09T13:39:56.856Z,10.50
2023-04-09T13:42:25.202Z,8.40
2023-04-09T13:44:53.846Z,9.40
2023-04-09T13:47:23.979Z,12.40
2023-04-09T13:49:53.353Z,10.00
2023-04-09T13:52:21.389Z,8.10
2023-04-09T13:54:49.553Z,12.50
2023-04-09T13:57:18.108Z,10.10
2023-04-09T13:59:46.331Z,10.20
2023-04-09T14:02:14.516Z,10.00
2023-04-09T14:04:42.680Z,12.30
2023-04-09T14:07:10.739Z,10.60
2023-04-09T14:09:38.620Z,8.60
2023-04-09T14:12:06.812Z,8.90
2023-04-09T14:14:34.965Z,9.80
2023-04-09T14:17:03.061Z,10.60
2023-04-09T14:19:31.156Z,9.40
2023-04-09T14:21:59.231Z,9.60
2023-04-09T14:24:27.247Z,10.30
2023-04-09T14:26:55.460Z,8.40
2023-04-09T14:29:23.547Z,9.10
2023-04-09T14:31:53.516Z,11.80
2023-04-09T14:34:23.038Z,8.10
2023-04-09T14:36:51.389Z,8.50
2023-04-09T14:39:19.512Z,8.80
2023-04-09T14:41:47.547Z,8.20
2023-04-09T14:44:15.897Z,6.90
2023-04-09T14:46:44.992Z,7.10
2023-04-09T14:49:13.398Z,7.90
2023-04-09T14:51:41.461Z,6.90
2023-04-09T14:54:09.416Z,7.10
2023-04-09T14:56:37.478Z,10.80
2023-04-09T14:59:05.367Z,9.20
2023-04-09T15:01:33.521Z,7.00
2023-04-09T15:04:01.570Z,8.30
2023-04-09T15:06:29.700Z,7.50
2023-04-09T15:08:57.798Z,10.10
2023-04-09T15:11:25.969Z,10.00
2023-04-09T15:13:54.504Z,7.90
2023-04-09T15:16:27.940Z,10.10
2023-04-09T15:18:58.688Z,8.60
2023-04-09T15:21:27.935Z,9.50
2023-04-09T15:23:58.874Z,11.90
2023-04-09T15:26:27.473Z,8.40
2023-04-09T15:29:04.954Z,10.50
2023-04-09T15:31:33.865Z,11.70
2023-04-09T15:34:04.518Z,15.10
2023-04-09T15:36:32.674Z,8.50
2023-04-09T15:39:02.669Z,10.30
2023-04-09T15:41:32.320Z,11.20
2023-04-09T15:44:00.477Z,11.50
2023-04-09T15:46:29.040Z,11.40
2023-04-09T15:48:57.347Z,9.90
2023-04-09T15:51:25.488Z,9.10
2023-04-09T15:53:53.558Z,9.20
2023-04-09T15:56:21.651Z,11.20
2023-04-09T15:58:49.829Z,7.70
2023-04-09T16:01:19.016Z,7.40
2023-04-09T16:03:51.997Z,9.60
2023-04-09T16:06:21.197Z,9.90
2023-04-09T16:08:49.496Z,10.30
2023-04-09T16:11:18.556Z,7.20
2023-04-09T16:13:46.862Z,8.50
2023-04-09T16:16:14.909Z,13.30
2023-04-09T16:18:42.916Z,11.80
2023-04-09T16:21:11.279Z,15.40
2023-04-09T16:23:39.927Z,15.70
2023-04-09T16:26:08.000Z,9.40
2023-04-09T16:28:39.292Z,13.70
2023-04-09T16:31:07.417Z,7.50
2023-04-09T16:33:35.689Z,7.50
2023-04-09T16:36:03.733Z,12.10
2023-04-09T16:38:31.922Z,13.60
2023-04-09T16:40:59.865Z,11.90
2023-04-09T16:43:27.930Z,8.70
2023-04-09T16:45:56.521Z,7.80
2023-04-09T16:48:24.684Z,10.20
2023-04-09T16:50:52.887Z,8.70
2023-04-09T16:53:21.281Z,9.00
2023-04-09T16:55:50.019Z,8.30
2023-04-09T16:58:18.024Z,9.30
2023-04-09T17:00:47.775Z,9.70
2023-04-09T17:03:20.830Z,11.30
2023-04-09T17:05:49.429Z,11.30
2023-04-09T17:08:18.393Z,11.70
2023-04-09T17:10:46.368Z,11.70
2023-04-09T17:13:14.499Z,10.50
2023-04-09T17:15:43.183Z,10.60
2023-04-09T17:18:11.556Z,8.70
2023-04-09T17:20:39.580Z,10.30
2023-04-09T17:23:07.747Z,9.20
2023-04-09T17:25:35.908Z,8.00
2023-04-09T17:28:04.981Z,9.30
2023-04-09T17:30:33.427Z,9.30
2023-04-09T17:33:01.865Z,11.70
2023-04-09T17:35:30.014Z,9.60
2023-04-09T17:37:58.314Z,11.10
2023-04-09T17:40:27.646Z,10.00
2023-04-09T17:42:56.272Z,11.30
2023-04-09T17:45:24.560Z,10.70
2023-04-09T17:47:52.752Z,9.30
2023-04-09T17:50:21.012Z,12.10
2023-04-09T17:52:49.064Z,9.50
2023-04-09T17:55:18.432Z,10.70
2023-04-09T17:57:46.786Z,14.80
2023-04-09T18:00:15.318Z,11.50
2023-04-09T18:02:54.276Z,15.30
2023-04-09T18:05:23.528Z,13.60
2023-04-09T18:07:52.662Z,12.30
2023-04-09T18:10:23.317Z,9.30
2023-04-09T18:12:51.986Z,15.50
2023-04-09T18:15:21.787Z,17.20
2023-04-09T18:17:49.994Z,15.90
2023-04-09T18:20:18.747Z,18.80
2023-04-09T18:22:47.351Z,16.10
2023-04-09T18:25:15.982Z,17.70
2023-04-09T18:27:44.701Z,16.70
2023-04-09T18:30:13.170Z,17.40
2023-04-09T18:32:41.141Z,18.30
2023-04-09T18:35:10.012Z,19.00
2023-04-09T18:37:38.466Z,25.40
2023-04-09T18:40:09.489Z,20.50
2023-04-09T18:42:37.535Z,18.30
2023-04-09T18:45:07.125Z,23.10
2023-04-09T18:47:37.305Z,20.40
2023-04-09T18:50:06.563Z,20.30
2023-04-09T18:52:38.239Z,14.30
2023-04-09T18:57:34.873Z,17.80
2023-04-09T19:04:40.031Z,14.50
2023-04-09T19:07:08.454Z,16.00
2023-04-09T19:09:37.529Z,19.40
2023-04-09T19:12:07.650Z,18.60
2023-04-09T19:14:36.963Z,21.30
2023-04-09T19:17:05.495Z,20.00
2023-04-09T19:19:34.035Z,22.10
2023-04-09T19:22:02.970Z,19.60
2023-04-09T19:24:32.527Z,20.40
2023-04-09T19:27:04.852Z,20.40
2023-04-09T19:29:33.698Z,22.50
2023-04-09T19:32:06.048Z,20.60
2023-04-09T19:34:34.425Z,22.20
2023-04-09T19:37:03.035Z,19.60
2023-04-09T19:39:31.689Z,21.50
2023-04-09T19:42:00.725Z,21.90
2023-04-09T19:44:28.823Z,16.20
2023-04-09T19:46:57.346Z,19.00
2023-04-09T19:49:28.353Z,18.70
2023-04-09T19:51:56.965Z,18.40
2023-04-09T19:54:25.231Z,22.30
2023-04-09T19:56:57.010Z,18.90
2023-04-09T19:59:36.148Z,22.40
2023-04-09T20:02:04.431Z,21.70
2023-04-09T20:04:33.022Z,18.00
2023-04-09T20:07:01.399Z,17.50
2023-04-09T20:09:29.432Z,20.80
2023-04-09T20:12:04.480Z,17.50
2023-04-09T20:14:32.528Z,19.20
2023-04-09T20:17:00.769Z,18.10
2023-04-09T20:19:29.127Z,17.40
2023-04-09T20:21:57.277Z,15.10
2023-04-09T20:24:26.995Z,16.40
2023-04-09T20:26:56.382Z,19.00
2023-04-09T20:29:24.694Z,16.50
2023-04-09T20:31:52.737Z,17.30
2023-04-09T20:34:26.527Z,17.80
2023-04-09T20:36:56.065Z,20.00
2023-04-09T20:39:26.805Z,22.30
2023-04-09T20:41:56.775Z,25.90
2023-04-09T20:44:24.896Z,23.70
2023-04-09T20:46:52.896Z,25.20
2023-04-09T20:49:21.475Z,27.60
2023-04-09T20:51:49.909Z,28.80
2023-04-09T20:54:18.124Z,24.80
2023-04-09T20:56:46.223Z,28.50
2023-04-09T20:59:15.793Z,26.90
2023-04-09T21:01:44.123Z,32.30
2023-04-09T21:04:12.835Z,33.90
2023-04-09T21:06:41.302Z,33.10
2023-04-09T21:09:09.546Z,33.60
2023-04-09T21:11:37.708Z,32.60
2023-04-09T21:14:07.103Z,30.70
2023-04-09T21:16:35.699Z,32.30
2023-04-09T21:19:07.641Z,37.50
2023-04-09T21:21:37.656Z,33.40
2023-04-09T21:24:05.900Z,42.70
2023-04-09T21:26:49.423Z,37.60
2023-04-09T21:29:21.312Z,67.30
2023-04-09T21:31:49.990Z,43.80
2023-04-09T21:34:18.004Z,36.30
2023-04-09T21:36:47.312Z,40.20
2023-04-09T21:39:15.597Z,33.40
2023-04-09T21:41:44.084Z,34.30
2023-04-09T21:44:12.572Z,34.70
2023-04-09T21:46:41.767Z,35.70
2023-04-09T21:49:09.856Z,35.50
2023-04-09T21:51:38.902Z,34.60
2023-04-09T21:54:08.782Z,32.60
2023-04-09T21:56:37.289Z,29.10
2023-04-09T21:59:06.357Z,34.20
2023-04-09T22:01:35.466Z,30.80
2023-04-09T22:04:04.152Z,31.30
2023-04-09T22:06:32.498Z,35.40
2023-04-09T22:09:01.075Z,32.60
2023-04-09T22:11:29.442Z,37.10
2023-04-09T22:13:57.742Z,36.60
2023-04-09T22:16:26.435Z,30.90
2023-04-09T22:18:55.389Z,34.40
2023-04-09T22:21:24.191Z,31.90
2023-04-09T22:23:52.213Z,32.00
2023-04-09T22:26:20.269Z,32.90
2023-04-09T22:28:48.236Z,31.60
2023-04-09T22:31:17.456Z,30.90
2023-04-09T22:33:45.544Z,31.90
2023-04-09T22:36:13.575Z,28.90
2023-04-09T22:38:41.706Z,30.40
2023-04-09T22:41:10.032Z,31.00
2023-04-09T22:43:38.089Z,29.10
2023-04-09T22:46:06.282Z,31.70
2023-04-09T22:48:40.808Z,151.30
2023-04-09T22:51:13.901Z,35.20
2023-04-09T22:53:42.371Z,28.00
2023-04-09T22:56:10.464Z,25.50
2023-04-09T22:58:38.632Z,21.50
2023-04-09T23:01:07.232Z,24.50
2023-04-09T23:03:35.676Z,19.40
2023-04-09T23:06:04.282Z,21.00
2023-04-09T23:08:32.415Z,25.00
2023-04-09T23:11:01.212Z,21.30
2023-04-09T23:13:29.514Z,24.90
2023-04-09T23:15:58.275Z,24.90
2023-04-09T23:18:26.321Z,39.00
2023-04-09T23:20:54.409Z,128.80
2023-04-09T23:23:23.235Z,169.50
2023-04-09T23:25:51.241Z,218.10
2023-04-09T23:28:19.393Z,88.90
2023-04-09T23:30:47.441Z,86.10
2023-04-09T23:33:15.451Z,191.50
2023-04-09T23:35:43.589Z,29.40
2023-04-09T23:38:11.729Z,29.80
2023-04-09T23:40:39.765Z,123.00
2023-04-09T23:43:09.061Z,74.90
2023-04-09T23:45:37.256Z,159.00
2023-04-09T23:48:06.236Z,110.00
2023-04-09T23:50:37.401Z,183.60
2023-04-09T23:53:05.533Z,41.10
2023-04-09T23:55:38.079Z,29.40
2023-04-09T23:58:06.142Z,42.50
